Kenosha, WI (53141)

4:18 AM CST on December 06, 2016 (GMT -0600)
SouthEast Kenosha - Red Arrow Park | | Change Station

Elev 627 ft 42.56 °N, 87.83 °W | Updated 8 seconds ago

Rain
Rain
37.0 °F
Feels Like 37 °F
N
2.0
Wind Variable Wind from East

Today
High -- | Low -- °F
--% Chance of Precip.
Yesterday
High -- | Low -- °F
Precip. -- in
Pressure 29.87 in
Visibility 6.0 miles
Clouds Overcast 1200 ft
Windchill 37 °F
Dew Point 35 °F
Humidity 96%
Rainfall 0.14 in
Snow Depth Not available.
7:07 AM 4:17 PM
Waxing Crescent, 40% visible
METAR KENW 060953Z AUTO 11003KT 6SM BR OVC012 03/01 A2984 RMK AO2 SLP113 T00280006 $
Pressure 29.87 in
Visibility 6.0 miles
Clouds Overcast 1200 ft
Windchill 37 °F
Dew Point 35 °F
Humidity 96%
Rainfall 0.14 in
Snow Depth Not available.
7:07 AM 4:17 PM
Waxing Crescent, 40% visible
METAR KENW 060953Z AUTO 11003KT 6SM BR OVC012 03/01 A2984 RMK AO2 SLP113 T00280006 $

10-Day Weather Forecast

Almanac

Astronomy

Dec. 06, 2016 Rise Set
Actual Time
Civil Twilight
Nautical Twilight
Astronomical Twilight
Moon
Length of Visible Light
Length of Day
Tomorrow will be .
, % of the Moon is Illuminated

Today's Extremes

State Highs State Lows

Community

WunderPhotos

Upload Photos

1,955,935 photos uploaded!

WunderBlog® & News

Nearby

Air Quality

  Air Quality AQ Index Pollutant
Not available.

Snow Depth

Station Depth Elevation

Earthquake Activity

City Distance Mag. Time & Date
Minimum magnitude displayed is 2.5.

Coastal Water Temperatures

Place Temperature

Stations

Nearby Weather Stations

Station Location Temp. Windchill Dew Point Humidity Wind Precip. Elev Updated Type
                   

Watches & Warnings

There are currently no watches in effect.